sensor_id;sensor_type;location;lat;lon;timestamp;temperature;humidity
11778;DHT22;5946;51.770;8.548;2022-07-23T00:00:14;15.40;99.90
11778;DHT22;5946;51.770;8.548;2022-07-23T00:02:40;15.50;99.90
11778;DHT22;5946;51.770;8.548;2022-07-23T00:05:05;15.40;99.90
11778;DHT22;5946;51.770;8.548;2022-07-23T00:07:31;15.50;99.90
11778;DHT22;5946;51.770;8.548;2022-07-23T00:09:56;15.50;99.90
11778;DHT22;5946;51.770;8.548;2022-07-23T00:12:22;15.30;99.90
11778;DHT22;5946;51.770;8.548;2022-07-23T00:14:47;15.60;99.90
11778;DHT22;5946;51.770;8.548;2022-07-23T00:17:13;15.40;99.90
11778;DHT22;5946;51.770;8.548;2022-07-23T00:19:38;15.40;99.90
11778;DHT22;5946;51.770;8.548;2022-07-23T00:22:05;15.30;99.90
11778;DHT22;5946;51.770;8.548;2022-07-23T00:24:30;15.40;99.90
11778;DHT22;5946;51.770;8.548;2022-07-23T00:26:56;15.30;99.90
11778;DHT22;5946;51.770;8.548;2022-07-23T00:29:21;15.30;99.90
11778;DHT22;5946;51.770;8.548;2022-07-23T00:31:47;15.40;99.90
11778;DHT22;5946;51.770;8.548;2022-07-23T00:34:13;15.40;99.90
11778;DHT22;5946;51.770;8.548;2022-07-23T00:36:38;15.40;99.90
11778;DHT22;5946;51.770;8.548;2022-07-23T00:39:04;15.20;99.90
11778;DHT22;5946;51.770;8.548;2022-07-23T00:41:30;15.40;99.90
11778;DHT22;5946;51.770;8.548;2022-07-23T00:44:13;15.40;99.90
11778;DHT22;5946;51.770;8.548;2022-07-23T00:46:45;15.40;99.90
11778;DHT22;5946;51.770;8.548;2022-07-23T00:49:11;15.40;99.90
11778;DHT22;5946;51.770;8.548;2022-07-23T00:51:36;15.40;99.90
11778;DHT22;5946;51.770;8.548;2022-07-23T00:54:02;15.40;99.90
11778;DHT22;5946;51.770;8.548;2022-07-23T00:56:27;15.50;99.90
11778;DHT22;5946;51.770;8.548;2022-07-23T00:58:53;15.40;99.90
11778;DHT22;5946;51.770;8.548;2022-07-23T01:01:18;15.40;99.90
11778;DHT22;5946;51.770;8.548;2022-07-23T01:03:44;15.50;99.90
11778;DHT22;5946;51.770;8.548;2022-07-23T01:06:09;15.30;99.90
11778;DHT22;5946;51.770;8.548;2022-07-23T01:08:35;15.40;99.90
11778;DHT22;5946;51.770;8.548;2022-07-23T01:11:01;15.40;99.90
11778;DHT22;5946;51.770;8.548;2022-07-23T01:13:27;15.30;99.90
11778;DHT22;5946;51.770;8.548;2022-07-23T01:15:53;15.30;99.90
11778;DHT22;5946;51.770;8.548;2022-07-23T01:18:18;15.30;99.90
11778;DHT22;5946;51.770;8.548;2022-07-23T01:20:44;15.20;99.90
11778;DHT22;5946;51.770;8.548;2022-07-23T01:23:09;15.10;99.90
11778;DHT22;5946;51.770;8.548;2022-07-23T01:25:35;15.10;99.90
11778;DHT22;5946;51.770;8.548;2022-07-23T01:28:00;15.10;99.90
11778;DHT22;5946;51.770;8.548;2022-07-23T01:30:26;15.20;99.90
11778;DHT22;5946;51.770;8.548;2022-07-23T01:32:51;15.20;99.90
11778;DHT22;5946;51.770;8.548;2022-07-23T01:35:17;15.10;99.90
11778;DHT22;5946;51.770;8.548;2022-07-23T01:37:43;15.20;99.90
11778;DHT22;5946;51.770;8.548;2022-07-23T01:40:08;15.10;99.90
11778;DHT22;5946;51.770;8.548;2022-07-23T01:42:34;15.10;99.90
11778;DHT22;5946;51.770;8.548;2022-07-23T01:45:00;15.00;99.90
11778;DHT22;5946;51.770;8.548;2022-07-23T01:47:26;15.00;99.90
11778;DHT22;5946;51.770;8.548;2022-07-23T01:49:51;15.00;99.90
11778;DHT22;5946;51.770;8.548;2022-07-23T01:52:17;15.00;99.90
11778;DHT22;5946;51.770;8.548;2022-07-23T01:54:42;15.00;99.90
11778;DHT22;5946;51.770;8.548;2022-07-23T01:57:08;15.10;99.90
11778;DHT22;5946;51.770;8.548;2022-07-23T01:59:34;15.10;99.90
11778;DHT22;5946;51.770;8.548;2022-07-23T02:02:00;15.10;99.90
11778;DHT22;5946;51.770;8.548;2022-07-23T02:04:26;15.00;99.90
11778;DHT22;5946;51.770;8.548;2022-07-23T02:06:52;15.00;99.90
11778;DHT22;5946;51.770;8.548;2022-07-23T02:09:18;15.00;99.90
11778;DHT22;5946;51.770;8.548;2022-07-23T02:11:44;15.00;99.90
11778;DHT22;5946;51.770;8.548;2022-07-23T02:14:09;15.00;99.90
11778;DHT22;5946;51.770;8.548;2022-07-23T02:16:35;14.90;99.90
11778;DHT22;5946;51.770;8.548;2022-07-23T02:19:00;14.90;99.90
11778;DHT22;5946;51.770;8.548;2022-07-23T02:21:26;14.90;99.90
11778;DHT22;5946;51.770;8.548;2022-07-23T02:23:51;14.90;99.90
11778;DHT22;5946;51.770;8.548;2022-07-23T02:26:17;14.90;99.90
11778;DHT22;5946;51.770;8.548;2022-07-23T02:28:43;14.90;99.90
11778;DHT22;5946;51.770;8.548;2022-07-23T02:31:08;14.90;99.90
11778;DHT22;5946;51.770;8.548;2022-07-23T02:33:34;14.90;99.90
11778;DHT22;5946;51.770;8.548;2022-07-23T02:35:59;15.80;99.90
11778;DHT22;5946;51.770;8.548;2022-07-23T02:45:43;14.50;99.90
11778;DHT22;5946;51.770;8.548;2022-07-23T02:48:09;14.70;99.90
11778;DHT22;5946;51.770;8.548;2022-07-23T02:50:34;14.40;99.90
11778;DHT22;5946;51.770;8.548;2022-07-23T03:02:44;13.10;99.90
11778;DHT22;5946;51.770;8.548;2022-07-23T03:05:09;14.70;99.90
11778;DHT22;5946;51.770;8.548;2022-07-23T03:07:35;14.50;99.90
11778;DHT22;5946;51.770;8.548;2022-07-23T03:10:01;14.40;99.90
11778;DHT22;5946;51.770;8.548;2022-07-23T03:12:26;14.20;99.90
11778;DHT22;5946;51.770;8.548;2022-07-23T03:14:52;14.10;99.90
11778;DHT22;5946;51.770;8.548;2022-07-23T03:17:17;14.10;99.90
11778;DHT22;5946;51.770;8.548;2022-07-23T03:19:43;14.10;99.90
11778;DHT22;5946;51.770;8.548;2022-07-23T03:22:09;14.00;99.90
11778;DHT22;5946;51.770;8.548;2022-07-23T03:24:34;13.90;99.90
11778;DHT22;5946;51.770;8.548;2022-07-23T03:27:19;13.90;99.90
11778;DHT22;5946;51.770;8.548;2022-07-23T03:29:45;14.00;99.90
11778;DHT22;5946;51.770;8.548;2022-07-23T03:32:10;14.00;99.90
11778;DHT22;5946;51.770;8.548;2022-07-23T03:37:02;13.10;99.90
11778;DHT22;5946;51.770;8.548;2022-07-23T03:39:28;13.90;99.90
11778;DHT22;5946;51.770;8.548;2022-07-23T03:41:53;13.40;99.90
11778;DHT22;5946;51.770;8.548;2022-07-23T03:44:19;13.70;99.90
11778;DHT22;5946;51.770;8.548;2022-07-23T03:46:44;13.70;99.90
11778;DHT22;5946;51.770;8.548;2022-07-23T03:51:35;13.50;99.90
11778;DHT22;5946;51.770;8.548;2022-07-23T03:56:27;13.70;99.90
11778;DHT22;5946;51.770;8.548;2022-07-23T03:58:53;13.70;99.90
11778;DHT22;5946;51.770;8.548;2022-07-23T04:01:18;13.60;99.90
11778;DHT22;5946;51.770;8.548;2022-07-23T04:03:44;13.60;99.90
11778;DHT22;5946;51.770;8.548;2022-07-23T04:06:10;13.60;99.90
11778;DHT22;5946;51.770;8.548;2022-07-23T04:08:35;13.50;99.90
11778;DHT22;5946;51.770;8.548;2022-07-23T04:11:01;13.50;99.90
11778;DHT22;5946;51.770;8.548;2022-07-23T04:13:26;13.50;99.90
11778;DHT22;5946;51.770;8.548;2022-07-23T04:15:52;13.60;99.90
11778;DHT22;5946;51.770;8.548;2022-07-23T04:18:18;13.60;99.90
11778;DHT22;5946;51.770;8.548;2022-07-23T04:20:44;13.70;99.90
11778;DHT22;5946;51.770;8.548;2022-07-23T04:23:09;13.70;99.90
11778;DHT22;5946;51.770;8.548;2022-07-23T04:25:35;13.80;99.90
11778;DHT22;5946;51.770;8.548;2022-07-23T04:28:01;13.90;99.90
11778;DHT22;5946;51.770;8.548;2022-07-23T04:30:27;13.90;99.90
11778;DHT22;5946;51.770;8.548;2022-07-23T04:32:52;14.00;99.90
11778;DHT22;5946;51.770;8.548;2022-07-23T04:35:18;14.00;99.90
11778;DHT22;5946;51.770;8.548;2022-07-23T04:37:43;14.10;99.90
11778;DHT22;5946;51.770;8.548;2022-07-23T04:42:36;14.00;99.90
11778;DHT22;5946;51.770;8.548;2022-07-23T05:26:25;14.50;99.90
11778;DHT22;5946;51.770;8.548;2022-07-23T05:28:51;14.50;99.90
11778;DHT22;5946;51.770;8.548;2022-07-23T05:33:43;14.60;99.90
11778;DHT22;5946;51.770;8.548;2022-07-23T05:36:09;14.60;99.90
11778;DHT22;5946;51.770;8.548;2022-07-23T05:38:34;14.50;99.90
11778;DHT22;5946;51.770;8.548;2022-07-23T05:41:00;14.70;99.90
11778;DHT22;5946;51.770;8.548;2022-07-23T05:43:26;14.80;99.90
11778;DHT22;5946;51.770;8.548;2022-07-23T05:45:52;14.90;99.90
11778;DHT22;5946;51.770;8.548;2022-07-23T05:48:17;14.90;99.90
11778;DHT22;5946;51.770;8.548;2022-07-23T05:50:43;14.90;99.90
11778;DHT22;5946;51.770;8.548;2022-07-23T05:55:34;14.90;99.90
11778;DHT22;5946;51.770;8.548;2022-07-23T05:58:00;14.90;99.90
11778;DHT22;5946;51.770;8.548;2022-07-23T06:00:26;15.10;99.90
11778;DHT22;5946;51.770;8.548;2022-07-23T06:02:52;15.10;99.90
11778;DHT22;5946;51.770;8.548;2022-07-23T06:07:44;15.10;99.90
11778;DHT22;5946;51.770;8.548;2022-07-23T06:15:03;15.30;99.90
11778;DHT22;5946;51.770;8.548;2022-07-23T06:17:29;15.40;99.90
11778;DHT22;5946;51.770;8.548;2022-07-23T06:24:48;15.70;99.90
11778;DHT22;5946;51.770;8.548;2022-07-23T07:40:14;17.80;99.90
11778;DHT22;5946;51.770;8.548;2022-07-23T07:45:12;17.90;99.90
11778;DHT22;5946;51.770;8.548;2022-07-23T07:47:38;18.00;99.90
11778;DHT22;5946;51.770;8.548;2022-07-23T07:50:04;18.20;99.90
11778;DHT22;5946;51.770;8.548;2022-07-23T07:52:30;18.50;99.90
11778;DHT22;5946;51.770;8.548;2022-07-23T08:19:14;19.00;99.90
11778;DHT22;5946;51.770;8.548;2022-07-23T08:21:40;20.10;99.90
11778;DHT22;5946;51.770;8.548;2022-07-23T08:24:05;20.20;99.90
11778;DHT22;5946;51.770;8.548;2022-07-23T08:26:31;20.40;99.90
11778;DHT22;5946;51.770;8.548;2022-07-23T08:28:57;20.60;99.90
11778;DHT22;5946;51.770;8.548;2022-07-23T08:31:22;20.50;99.90
